In Rescue
 
Open Full Screen Window  High Contrast Mode
Wind Gusting 00 knots
03
January 17, 2021 10:59 AM CST
Weather Information
Wind Direction
  360 °
Wind Speed
  03 kt (3 mph)
Wind Gust
  00 kt (0 mph)
Altimeter
29.82 in
Visibility
7 SM
Temperature
-05° C
23° F
Dewpoint
-06° C
21° F
Humidity
93%
1hr Rain Fall
00.00 in.
24hr Rain Fall
00.00 in.
Sky Condition
Missing
VFR

METAR KMGG 171659Z AUTO 36003KT 7SM M05/M06 A2982 RMK AO2

FAA Disclaimer: The data displayed is for advisory purposes only and is not to be used for flight planning or operations.
Missing Cloud Data